Terminal Aerodrome Forecast
Issued by NWS

Home | Current Version | Previous Version | Graphics & Text | Print | Product List | Glossary On
Versions: 1 2 3 4 5 6 7 8 9 10 11 12 13 14 15 16 17 18 19
000
FTUS43 KGRB 241235 AAA
TAFCWA
TAF AMD
KCWA 241235Z 2413/2512 36007KT 5SM BR SCT004 OVC010
      TEMPO 2413/2414 2SM -SHRA BR OVC004
     FM241400 04007KT P6SM OVC010
     FM241900 05008KT P6SM BKN025
     FM250900 02003KT 5SM BR OVC008=

USA.gov is the U.S. government's official web portal to all federal, state and local government web resources and services.